Time;durP1;ratioP1;P1;durP2;ratioP2;P2;SDS_P1;SDS_P2;PMS_P1;PMS_P2;Temp;Humidity;BMP_temperature;BMP_pressure;BME280_temperature;BME280_humidity;BME280_pressure;Samples;Min_cycle;Max_cycle;Signal;HPM_P1;HPM_P2
2022/06/10 00:00:07;;;;;;;10.95;5.75;;;;;;;23.36;73.50;100499.69;2082577;28;20176;-72
2022/06/10 00:01:30;;;;;;;12.02;5.68;;;;;;;23.35;73.57;100497.06;2084048;28;20402;-72
2022/06/10 00:02:52;;;;;;;11.60;6.13;;;;;;;23.34;73.77;100492.59;2085950;28;20075;-72
2022/06/10 00:04:15;;;;;;;11.00;5.65;;;;;;;23.32;73.83;100489.97;2081407;28;20049;-73
2022/06/10 00:05:37;;;;;;;10.82;4.93;;;;;;;23.32;73.84;100492.66;2070175;28;20124;-72
2022/06/10 00:07:00;;;;;;;12.90;5.63;;;;;;;23.31;73.92;100498.09;2080950;28;20049;-72
2022/06/10 00:08:25;;;;;;;11.80;5.47;;;;;;;23.30;74.02;100499.91;2086200;28;20052;-72
2022/06/10 00:09:46;;;;;;;15.90;6.50;;;;;;;23.29;74.15;100500.88;2080607;28;20080;-72
2022/06/10 00:11:10;;;;;;;11.82;5.53;;;;;;;23.29;74.38;100494.63;2079415;28;20068;-72
2022/06/10 00:12:33;;;;;;;10.13;4.30;;;;;;;23.29;74.36;100503.59;2077981;28;20065;-72
2022/06/10 00:13:56;;;;;;;11.43;5.65;;;;;;;23.28;74.39;100503.63;2077821;28;20597;-73
2022/06/10 00:15:19;;;;;;;10.25;4.65;;;;;;;23.26;74.53;100498.31;2077428;28;20083;-72
2022/06/10 00:16:42;;;;;;;12.30;5.63;;;;;;;23.25;74.71;100496.53;2077763;28;20462;-72
2022/06/10 00:18:05;;;;;;;10.00;4.72;;;;;;;23.25;74.85;100503.75;2074044;28;20368;-73
2022/06/10 00:19:28;;;;;;;11.00;5.35;;;;;;;23.23;75.18;100503.84;2075366;28;20140;-72
2022/06/10 00:20:51;;;;;;;16.27;7.03;;;;;;;23.23;75.14;100495.75;2085994;28;20487;-72
2022/06/10 00:22:12;;;;;;;7.88;5.47;;;;;;;23.21;75.47;100499.44;2080365;28;20140;-72
2022/06/10 00:23:35;;;;;;;9.00;3.78;;;;;;;23.21;75.47;100496.75;2081995;28;20053;-72
2022/06/10 00:24:58;;;;;;;15.70;6.32;;;;;;;23.19;75.58;100501.31;2085415;28;20132;-71
2022/06/10 00:26:21;;;;;;;9.55;5.07;;;;;;;23.20;75.50;100494.97;2083562;28;20053;-72
2022/06/10 00:27:44;;;;;;;12.85;5.53;;;;;;;23.19;75.77;100498.59;2086091;28;20156;-71
2022/06/10 00:29:07;;;;;;;9.43;5.10;;;;;;;23.17;75.47;100490.56;2092097;28;20091;-72
2022/06/10 00:30:31;;;;;;;8.07;4.45;;;;;;;23.17;75.50;100493.28;2087443;28;20079;-72
2022/06/10 00:31:53;;;;;;;15.15;6.35;;;;;;;23.17;75.45;100493.28;2078494;28;20881;-72
2022/06/10 00:33:16;;;;;;;10.32;5.43;;;;;;;23.17;75.57;100498.66;2082745;28;20048;-72
2022/06/10 00:34:37;;;;;;;11.82;5.82;;;;;;;23.16;75.68;100490.66;2077376;28;20057;-72
2022/06/10 00:35:59;;;;;;;9.70;5.50;;;;;;;23.17;75.85;100479.81;2082444;28;20053;-72
2022/06/10 00:37:22;;;;;;;12.80;5.93;;;;;;;23.16;75.92;100480.78;2084428;28;20072;-72
2022/06/10 00:38:45;;;;;;;8.68;5.13;;;;;;;23.16;76.07;100480.78;2075784;28;20566;-72
2022/06/10 00:40:11;;;;;;;10.95;5.68;;;;;;;23.17;76.30;100493.28;2075151;28;20057;-72
2022/06/10 00:41:33;;;;;;;16.42;6.53;;;;;;;23.15;76.50;100476.31;2077988;28;20064;-72
2022/06/10 00:42:58;;;;;;;13.20;5.63;;;;;;;23.17;76.60;100493.28;2084208;28;20114;-72
2022/06/10 00:44:40;;;;;;;13.05;7.05;;;;;;;23.15;76.73;100497.00;2082731;28;20150;-72
2022/06/10 00:46:14;;;;;;;7.88;4.93;;;;;;;23.12;77.06;100489.91;2080098;28;20049;-72
2022/06/10 00:47:43;;;;;;;10.35;5.70;;;;;;;23.11;77.30;100493.53;2085372;28;20069;-72
2022/06/10 00:49:15;;;;;;;11.20;5.18;;;;;;;23.11;77.41;100481.88;2079846;28;20080;-72
2022/06/10 00:50:37;;;;;;;11.85;4.63;;;;;;;23.09;77.30;100490.03;2070819;28;20073;-72
2022/06/10 00:52:01;;;;;;;12.80;5.45;;;;;;;23.07;77.62;100494.59;2080339;28;20163;-72
2022/06/10 00:53:30;;;;;;;10.45;6.18;;;;;;;23.08;77.64;100504.44;2077509;28;20053;-72
2022/06/10 00:54:54;;;;;;;11.00;6.43;;;;;;;23.09;77.56;100497.25;2071926;28;20577;-72
2022/06/10 00:56:19;;;;;;;14.50;6.10;;;;;;;23.07;77.73;100499.97;2077706;28;20056;-71
2022/06/10 00:57:45;;;;;;;16.27;6.15;;;;;;;23.07;77.52;100491.03;2077461;28;20045;-72
2022/06/10 00:59:13;;;;;;;15.45;5.72;;;;;;;23.08;77.49;100498.16;2078613;28;20465;-72
2022/06/10 01:00:38;;;;;;;9.85;5.32;;;;;;;23.09;77.30;100508.00;2078166;28;20075;-72
2022/06/10 01:02:04;;;;;;;8.13;5.03;;;;;;;23.09;77.22;100497.25;2091128;28;20087;-71
2022/06/10 01:03:27;;;;;;;12.30;6.18;;;;;;;23.08;77.08;100498.16;2078060;28;20569;-72
2022/06/10 01:04:51;;;;;;;11.05;6.05;;;;;;;23.09;77.12;100500.81;2067812;28;20066;-72
2022/06/10 01:06:13;;;;;;;15.63;6.57;;;;;;;23.09;77.12;100489.16;2074938;28;20049;-72
2022/06/10 01:07:39;;;;;;;6.35;4.63;;;;;;;23.09;77.18;100497.25;2067405;28;20054;-72
2022/06/10 01:09:04;;;;;;;9.63;5.10;;;;;;;23.09;77.20;100506.19;2080960;28;20140;-72
2022/06/10 01:10:28;;;;;;;11.65;6.57;;;;;;;23.09;77.05;100506.19;2084232;28;20164;-72
2022/06/10 01:12:07;;;;;;;13.65;4.90;;;;;;;23.08;77.06;100515.22;2080030;28;20053;-71
2022/06/10 01:13:38;;;;;;;13.77;5.97;;;;;;;23.07;77.07;100508.06;2084000;28;20059;-71
2022/06/10 01:15:15;;;;;;;10.20;4.80;;;;;;;23.07;76.92;100520.66;2071539;28;20137;-72
2022/06/10 01:16:51;;;;;;;7.72;5.15;;;;;;;23.08;76.97;100517.91;2094545;28;20143;-72
2022/06/10 01:18:34;;;;;;;13.40;6.07;;;;;;;23.10;76.61;100524.13;2088260;28;20047;-72
2022/06/10 01:20:08;;;;;;;7.47;5.20;;;;;;;23.10;76.33;100524.13;2088881;28;20124;-72
2022/06/10 01:22:08;;;;;;;10.85;4.93;;;;;;;23.10;76.22;100525.94;2071576;28;20190;-72
2022/06/10 01:24:03;;;;;;;13.98;6.57;;;;;;;23.10;76.28;100524.13;2092937;28;20056;-72
2022/06/10 01:25:58;;;;;;;11.85;5.35;;;;;;;23.09;76.27;100524.16;2084941;28;20060;-72
2022/06/10 01:27:54;;;;;;;21.02;9.13;;;;;;;23.07;76.62;100517.97;2052768;28;20061;-72
2022/06/10 01:29:39;;;;;;;10.13;6.38;;;;;;;23.04;76.73;100517.13;2071568;28;20050;-72
2022/06/10 01:31:13;;;;;;;9.25;4.78;;;;;;;23.01;77.12;100509.19;2071827;28;20077;-72
2022/06/10 01:32:43;;;;;;;11.20;5.88;;;;;;;23.00;77.35;100510.13;2092507;28;20128;-71
2022/06/10 01:34:20;;;;;;;13.88;7.03;;;;;;;23.02;77.40;100512.75;2072991;28;20136;-72
2022/06/10 01:35:46;;;;;;;12.77;5.45;;;;;;;23.00;77.69;100511.94;2086457;28;20442;-72
2022/06/10 01:37:15;;;;;;;12.82;7.15;;;;;;;23.01;77.72;100519.97;2074947;28;20149;-71
2022/06/10 01:38:45;;;;;;;10.85;5.53;;;;;;;23.00;77.65;100514.63;2072013;28;20313;-72
2022/06/10 01:40:18;;;;;;;13.50;6.25;;;;;;;23.00;77.55;100510.13;2077760;28;20064;-72
2022/06/10 01:41:50;;;;;;;12.95;6.63;;;;;;;23.00;77.79;100506.56;2078016;28;20037;-72
2022/06/10 01:43:18;;;;;;;;;;;;;;;22.98;77.67;100503.03;2093511;28;20135;-71
2022/06/10 01:44:52;;;;;;;13.70;6.13;;;;;;;22.98;77.78;100497.66;2086978;28;19928;-72
2022/06/10 01:46:24;;;;;;;14.23;6.47;;;;;;;22.98;77.82;100498.53;2085326;28;20053;-71
2022/06/10 01:47:54;;;;;;;10.70;6.53;;;;;;;22.96;77.87;100497.72;2086361;28;20119;-71
2022/06/10 01:49:24;;;;;;;13.63;5.57;;;;;;;22.96;77.73;100484.28;2086641;28;20103;-72
2022/06/10 01:50:51;;;;;;;8.63;4.97;;;;;;;22.96;77.65;100484.28;2085505;28;20374;-72
2022/06/10 01:52:20;;;;;;;10.30;5.05;;;;;;;22.96;77.65;100488.78;2076235;28;20042;-71
2022/06/10 01:53:53;;;;;;;12.07;5.88;;;;;;;22.96;77.76;100481.56;2083106;28;20547;-72
2022/06/10 01:55:19;;;;;;;12.45;6.55;;;;;;;22.95;77.65;100477.13;2086500;28;20048;-72
2022/06/10 01:56:48;;;;;;;11.43;5.88;;;;;;;22.94;77.62;100475.38;2078057;28;20204;-71
2022/06/10 01:58:18;;;;;;;16.83;5.63;;;;;;;22.93;77.78;100468.22;2069988;28;20042;-72
2022/06/10 01:59:46;;;;;;;11.55;6.82;;;;;;;22.90;77.84;100473.75;2077557;28;20593;-71
2022/06/10 02:01:14;;;;;;;12.20;5.97;;;;;;;22.89;77.92;100466.59;2077742;28;20132;-72
2022/06/10 02:02:44;;;;;;;9.57;5.22;;;;;;;22.88;77.93;100467.53;2082464;28;20143;-72
2022/06/10 02:04:12;;;;;;;11.50;5.63;;;;;;;22.87;77.93;100471.16;2084356;28;20055;-71
2022/06/10 02:05:41;;;;;;;7.88;4.35;;;;;;;22.85;78.12;100466.75;2079078;28;20049;-71
2022/06/10 02:07:07;;;;;;;10.98;5.85;;;;;;;22.84;78.18;100467.72;2077619;28;20118;-71
2022/06/10 02:08:33;;;;;;;8.32;4.68;;;;;;;22.84;78.25;100465.03;2073963;28;20041;-71
2022/06/10 02:10:02;;;;;;;12.35;5.65;;;;;;;22.83;78.20;100464.16;2083651;28;20127;-71
2022/06/10 02:11:27;;;;;;;11.23;5.03;;;;;;;22.81;78.35;100467.84;2086243;28;20053;-71
2022/06/10 02:12:55;;;;;;;9.48;5.53;;;;;;;22.80;78.42;100472.34;2077366;28;20041;-72
2022/06/10 02:14:22;;;;;;;9.13;4.97;;;;;;;22.79;78.43;100467.88;2084021;28;20045;-71
2022/06/10 02:15:52;;;;;;;10.63;4.45;;;;;;;22.77;78.40;100477.84;2087608;28;20064;-72
2022/06/10 02:17:16;;;;;;;8.50;5.40;;;;;;;22.76;78.43;100469.84;2079557;28;20594;-72
2022/06/10 02:18:48;;;;;;;9.85;5.82;;;;;;;22.74;78.31;100477.97;2077410;28;20045;-72
2022/06/10 02:20:14;;;;;;;12.75;6.45;;;;;;;22.72;78.31;100470.84;2069876;28;20060;-72
2022/06/10 02:21:44;;;;;;;9.73;5.55;;;;;;;22.71;78.27;100461.88;2076522;28;20049;-72
2022/06/10 02:23:11;;;;;;;11.10;5.93;;;;;;;22.70;78.32;100470.91;2083676;28;20049;-72
2022/06/10 02:24:39;;;;;;;11.90;5.32;;;;;;;22.70;78.26;100470.91;2079938;28;20434;-72
2022/06/10 02:26:04;;;;;;;11.77;5.70;;;;;;;22.68;78.23;100467.41;2084991;28;20076;-72
2022/06/10 02:27:31;;;;;;;9.98;5.75;;;;;;;22.66;78.46;100470.16;2085795;28;20041;-72
2022/06/10 02:28:57;;;;;;;12.82;6.47;;;;;;;22.66;78.20;100469.25;2086004;28;20139;-72
2022/06/10 02:30:25;;;;;;;10.05;6.55;;;;;;;22.64;78.31;100465.78;2087281;28;20072;-72
2022/06/10 02:31:52;;;;;;;12.82;6.25;;;;;;;22.64;78.29;100465.78;2079599;28;20151;-72
2022/06/10 02:33:14;;;;;;;10.63;5.85;;;;;;;22.62;78.25;100465.84;2075861;28;20037;-72
2022/06/10 02:34:38;;;;;;;12.57;5.85;;;;;;;22.63;78.35;100459.53;2090600;28;20052;-72
2022/06/10 02:36:11;;;;;;;9.77;5.90;;;;;;;22.63;78.29;100464.91;2076155;28;20076;-73
2022/06/10 02:37:38;;;;;;;;;;;;;;;22.60;78.29;100462.31;2083387;28;20052;-71
2022/06/10 02:39:06;;;;;;;13.07;6.72;;;;;;;22.60;78.36;100462.31;2085769;28;19920;-72
2022/06/10 02:40:32;;;;;;;9.07;5.65;;;;;;;22.61;78.21;100460.50;2085689;28;20088;-72
2022/06/10 02:42:04;;;;;;;16.20;5.97;;;;;;;22.60;78.05;100461.44;2085517;28;20060;-72
2022/06/10 02:43:33;;;;;;;9.82;5.18;;;;;;;22.59;77.96;100441.72;2078282;28;20057;-72
2022/06/10 02:45:09;;;;;;;9.70;4.07;;;;;;;22.60;77.92;100456.06;2083053;28;20041;-72
2022/06/10 02:46:36;;;;;;;8.80;3.78;;;;;;;22.61;77.69;100449.75;2085875;28;20063;-72
2022/06/10 02:48:02;;;;;;;7.65;3.92;;;;;;;22.60;77.51;100458.75;2086165;28;20052;-72
2022/06/10 02:49:25;;;;;;;7.35;3.83;;;;;;;22.60;77.53;100453.38;2077444;28;20064;-73
2022/06/10 02:50:48;;;;;;;11.00;5.00;;;;;;;22.61;77.66;100465.88;2077612;28;20045;-72
2022/06/10 02:52:14;;;;;;;12.50;5.00;;;;;;;22.62;77.52;100465.84;2084011;28;20502;-72
2022/06/10 02:53:37;;;;;;;10.48;6.28;;;;;;;22.61;77.52;100456.00;2102156;28;20052;-72
2022/06/10 02:55:00;;;;;;;7.40;4.20;;;;;;;22.60;77.41;100462.31;2090418;28;20390;-71
2022/06/10 02:56:24;;;;;;;10.35;4.88;;;;;;;22.59;77.34;100460.56;2082456;28;20573;-72
2022/06/10 03:01:20;;;;;;;8.13;5.05;;;;;;;22.60;77.37;100464.13;2078948;28;20045;-71
2022/06/10 03:02:53;;;;;;;8.93;4.20;;;;;;;22.59;77.36;100465.94;2083913;28;20136;-72
2022/06/10 03:04:26;;;;;;;8.70;5.25;;;;;;;22.59;77.56;100465.06;2086711;28;20059;-71
2022/06/10 03:06:00;;;;;;;11.23;4.93;;;;;;;22.61;77.76;100466.75;2079247;28;20076;-72
2022/06/10 03:07:48;;;;;;;11.05;6.38;;;;;;;22.62;77.83;100470.34;2082273;28;20053;-72
2022/06/10 03:09:14;;;;;;;10.82;5.25;;;;;;;22.61;77.85;100476.66;2072700;28;20049;-72
2022/06/10 03:10:46;;;;;;;13.18;5.88;;;;;;;22.61;77.81;100472.16;2076995;28;20116;-72
2022/06/10 03:12:21;;;;;;;7.85;5.32;;;;;;;22.62;77.68;100464.94;2078970;28;20708;-72
2022/06/10 03:14:07;;;;;;;10.68;5.55;;;;;;;22.64;77.72;100471.16;2071843;28;20096;-71
2022/06/10 03:15:47;;;;;;;12.00;6.13;;;;;;;22.63;77.76;100474.78;2081616;28;20056;-71
2022/06/10 03:17:21;;;;;;;7.82;4.07;;;;;;;22.64;77.65;100469.31;2079961;28;20171;-72
2022/06/10 03:18:53;;;;;;;9.60;3.88;;;;;;;22.66;77.56;100472.84;2078441;28;20602;-72
2022/06/10 03:20:21;;;;;;;7.32;4.32;;;;;;;22.67;77.41;100477.28;2079441;28;20210;-72
2022/06/10 03:22:02;;;;;;;7.70;4.57;;;;;;;22.72;77.37;100471.72;2089550;28;20497;-72
2022/06/10 03:23:36;;;;;;;7.32;3.35;;;;;;;22.77;77.28;100464.41;2083964;28;20042;-72
2022/06/10 03:25:06;;;;;;;7.75;4.00;;;;;;;22.82;76.52;100475.84;2090041;28;20132;-72
2022/06/10 03:26:40;;;;;;;11.52;3.88;;;;;;;22.90;75.65;100472.88;2084514;28;20079;-72
2022/06/10 03:28:10;;;;;;;6.30;3.30;;;;;;;22.96;74.89;100481.56;2074586;28;20461;-72
2022/06/10 03:29:41;;;;;;;6.50;4.10;;;;;;;23.03;74.23;100479.53;2077791;28;20053;-72
2022/06/10 03:31:09;;;;;;;6.30;3.78;;;;;;;23.10;73.66;100478.34;2077685;28;20494;-72
2022/06/10 03:32:37;;;;;;;8.15;3.78;;;;;;;23.18;72.32;100478.00;2085309;28;20143;-72
2022/06/10 03:34:06;;;;;;;4.47;2.72;;;;;;;23.26;71.19;100489.34;2079053;28;20087;-72
2022/06/10 03:35:33;;;;;;;7.70;4.15;;;;;;;23.33;70.46;100485.47;2086907;28;20057;-72
2022/06/10 03:37:01;;;;;;;5.05;3.03;;;;;;;23.39;69.25;100485.19;2085436;28;20052;-72
2022/06/10 03:38:24;;;;;;;5.55;2.92;;;;;;;23.48;68.71;100483.97;2087086;28;20104;-71
2022/06/10 03:39:50;;;;;;;5.25;2.97;;;;;;;23.56;67.57;100489.94;2086775;28;20078;-72
2022/06/10 03:41:22;;;;;;;5.72;2.80;;;;;;;23.63;66.48;100486.03;2085388;28;20053;-71
2022/06/10 03:42:48;;;;;;;6.25;3.05;;;;;;;23.71;65.91;100487.44;2094536;28;20609;-72
2022/06/10 03:44:16;;;;;;;6.15;3.35;;;;;;;23.79;64.97;100470.94;2078388;28;20860;-72
2022/06/10 03:45:42;;;;;;;7.18;3.13;;;;;;;23.88;64.32;100485.84;2083560;28;20524;-71
2022/06/10 03:47:06;;;;;;;6.63;3.22;;;;;;;23.95;63.99;100481.94;2079075;28;20073;-72
2022/06/10 03:48:34;;;;;;;5.13;3.10;;;;;;;24.05;63.73;100485.97;2085635;28;20127;-71
2022/06/10 03:50:08;;;;;;;6.05;2.67;;;;;;;24.13;63.39;100486.53;2078649;28;20537;-71
2022/06/10 03:51:31;;;;;;;7.82;3.55;;;;;;;24.21;63.35;100482.56;2078505;28;20048;-72
2022/06/10 03:52:56;;;;;;;6.55;2.97;;;;;;;24.31;62.69;100490.25;2077795;28;20403;-72
2022/06/10 03:54:20;;;;;;;4.93;3.05;;;;;;;24.37;62.28;100485.44;2076356;28;20045;-71
2022/06/10 03:55:43;;;;;;;8.45;2.75;;;;;;;24.43;61.59;100485.16;2082937;28;20117;-72
2022/06/10 03:57:05;;;;;;;8.82;3.10;;;;;;;24.51;60.74;100498.31;2082090;28;20132;-72
2022/06/10 03:58:27;;;;;;;12.57;2.50;;;;;;;24.58;60.83;100492.56;2086247;28;20053;-72
2022/06/10 03:59:49;;;;;;;4.45;2.58;;;;;;;24.66;60.66;100497.59;2086142;28;20049;-72
2022/06/10 04:01:12;;;;;;;4.50;2.10;;;;;;;24.72;60.67;100500.00;2076626;28;20049;-72
2022/06/10 04:02:34;;;;;;;3.33;1.88;;;;;;;24.74;60.47;100495.44;2071372;28;20046;-71
2022/06/10 04:03:57;;;;;;;6.30;2.83;;;;;;;24.83;60.31;100489.56;2077214;28;20100;-72
2022/06/10 04:05:20;;;;;;;5.88;2.22;;;;;;;24.89;59.89;100499.19;2077935;28;20055;-72
2022/06/10 04:06:43;;;;;;;3.80;2.35;;;;;;;24.93;60.38;100487.34;2077511;28;20083;-72
2022/06/10 04:08:08;;;;;;;4.05;2.50;;;;;;;25.04;60.68;100503.03;2077808;28;20077;-72
2022/06/10 04:09:31;;;;;;;5.28;2.20;;;;;;;25.09;60.17;100500.97;2070091;28;20046;-71
2022/06/10 04:10:54;;;;;;;4.43;2.38;;;;;;;25.13;59.36;100502.59;2079387;28;20145;-72
2022/06/10 04:12:17;;;;;;;6.97;2.50;;;;;;;25.19;59.23;100497.78;2086079;28;20098;-72
2022/06/10 04:13:41;;;;;;;7.93;2.47;;;;;;;25.26;59.00;100483.00;2077997;28;20077;-72
2022/06/10 04:15:04;;;;;;;4.38;1.85;;;;;;;25.32;59.46;100504.34;2080124;28;20082;-72
2022/06/10 04:16:28;;;;;;;4.20;2.05;;;;;;;25.40;59.40;100499.41;2071779;28;20096;-72
2022/06/10 04:17:51;;;;;;;4.20;2.88;;;;;;;25.41;58.47;100501.16;2075835;28;20200;-72
2022/06/10 04:19:14;;;;;;;9.48;3.80;;;;;;;25.48;58.25;100493.59;2078268;28;20065;-71
2022/06/10 04:20:39;;;;;;;6.85;2.88;;;;;;;25.57;58.42;100501.31;2080769;28;20115;-72
2022/06/10 04:22:02;;;;;;;6.78;2.70;;;;;;;25.64;57.58;100513.56;2078026;28;20479;-72
2022/06/10 04:23:26;;;;;;;6.10;2.60;;;;;;;25.76;56.83;100515.63;2082543;28;20053;-72
2022/06/10 04:24:48;;;;;;;4.63;2.40;;;;;;;25.88;55.88;100505.13;2082676;28;20135;-72
2022/06/10 04:26:11;;;;;;;3.50;2.22;;;;;;;25.98;54.40;100509.13;2069696;28;20085;-72
2022/06/10 04:27:32;;;;;;;5.05;2.40;;;;;;;26.08;53.28;100504.97;2091461;28;20080;-72
2022/06/10 04:28:55;;;;;;;4.00;1.98;;;;;;;26.17;53.54;100515.31;2083205;28;20041;-72
2022/06/10 04:30:25;;;;;;;3.55;1.83;;;;;;;26.33;53.41;100512.69;2071309;28;20091;-72
2022/06/10 04:31:47;;;;;;;4.28;2.25;;;;;;;26.50;52.80;100516.28;2083101;28;20041;-72
2022/06/10 04:33:10;;;;;;;6.15;2.85;;;;;;;26.61;52.14;100526.50;2084023;28;20714;-72
2022/06/10 04:34:33;;;;;;;3.63;1.88;;;;;;;26.66;52.28;100515.41;2084759;28;20102;-72
2022/06/10 04:35:56;;;;;;;5.65;2.10;;;;;;;26.78;52.61;100531.03;2082082;28;20518;-72
2022/06/10 04:37:19;;;;;;;6.47;2.17;;;;;;;26.96;52.38;100528.19;2086300;28;20143;-72
2022/06/10 04:38:44;;;;;;;6.82;2.17;;;;;;;27.11;51.58;100520.16;2085171;28;20132;-72
2022/06/10 04:40:07;;;;;;;2.97;1.95;;;;;;;27.15;51.20;100533.44;2079530;28;20050;-72
2022/06/10 04:41:29;;;;;;;7.28;2.60;;;;;;;27.23;51.01;100530.31;2082592;28;20052;-72
2022/06/10 04:42:52;;;;;;;4.32;1.92;;;;;;;27.34;50.42;100525.13;2084591;28;20052;-72
2022/06/10 04:44:15;;;;;;;3.08;2.05;;;;;;;27.47;50.04;100523.47;2074363;28;20579;-71
2022/06/10 04:45:41;;;;;;;3.80;2.08;;;;;;;27.60;50.04;100529.94;2078887;28;20394;-73
2022/06/10 04:47:06;;;;;;;3.58;2.00;;;;;;;27.68;49.84;100533.09;2075591;28;20088;-72
2022/06/10 04:48:29;;;;;;;4.95;2.40;;;;;;;27.83;49.28;100535.88;2077536;28;20057;-72
2022/06/10 04:49:59;;;;;;;4.82;2.33;;;;;;;27.93;48.84;100537.06;2083055;28;20072;-72
2022/06/10 04:51:22;;;;;;;7.80;2.20;;;;;;;27.98;48.96;100540.38;2078233;28;20145;-72
2022/06/10 04:52:45;;;;;;;3.97;1.80;;;;;;;28.09;49.22;100541.47;2081788;28;20041;-72
2022/06/10 04:54:10;;;;;;;3.83;2.05;;;;;;;28.27;49.23;100541.34;2084309;28;20067;-72
2022/06/10 04:55:32;;;;;;;5.80;1.90;;;;;;;28.32;49.06;100526.53;2085786;28;20063;-72
2022/06/10 04:56:55;;;;;;;6.45;2.10;;;;;;;28.36;48.49;100540.78;2076625;28;20098;-72
2022/06/10 04:58:18;;;;;;;4.32;1.98;;;;;;;28.39;48.33;100538.75;2071918;28;20049;-72
2022/06/10 04:59:40;;;;;;;6.47;2.83;;;;;;;28.36;48.06;100533.50;2075007;28;20541;-72
2022/06/10 05:01:03;;;;;;;5.32;1.83;;;;;;;28.38;48.29;100518.00;2082708;28;20203;-72
2022/06/10 05:02:24;;;;;;;6.03;2.30;;;;;;;28.37;48.63;100531.66;2085105;28;20687;-72
2022/06/10 05:03:46;;;;;;;7.22;2.50;;;;;;;28.49;48.39;100530.91;2088182;28;20056;-72
2022/06/10 05:05:08;;;;;;;5.88;2.75;;;;;;;28.64;47.93;100520.91;2082429;28;20076;-73
2022/06/10 05:06:31;;;;;;;3.70;1.90;;;;;;;28.77;47.67;100527.34;2084655;28;20047;-72
2022/06/10 05:07:52;;;;;;;6.38;2.20;;;;;;;28.93;46.95;100510.00;2083788;28;20053;-72
2022/06/10 05:09:17;;;;;;;3.10;1.83;;;;;;;29.07;46.69;100502.78;2093563;28;20052;-72
2022/06/10 05:10:40;;;;;;;9.25;1.85;;;;;;;29.22;46.27;100513.50;2081403;28;20064;-73
2022/06/10 05:12:03;;;;;;;4.30;1.90;;;;;;;29.27;46.11;100515.94;2085382;28;20049;-73
2022/06/10 05:13:24;;;;;;;3.85;1.67;;;;;;;29.33;46.21;100518.25;2085629;28;20421;-73
2022/06/10 05:14:47;;;;;;;5.43;2.38;;;;;;;29.47;45.54;100511.94;2081344;28;20057;-72
2022/06/10 05:16:11;;;;;;;3.25;1.70;;;;;;;29.67;45.14;100514.16;2079297;28;20057;-72
2022/06/10 05:17:34;;;;;;;5.63;2.22;;;;;;;29.81;44.63;100511.38;2075891;28;20053;-72
2022/06/10 05:18:57;;;;;;;4.82;1.60;;;;;;;29.97;44.49;100503.09;2077309;28;20120;-72
2022/06/10 05:20:22;;;;;;;6.45;1.98;;;;;;;30.13;44.17;100509.19;2069231;28;20673;-72
2022/06/10 05:21:45;;;;;;;3.53;1.70;;;;;;;30.34;43.80;100501.38;2067371;28;20050;-72
2022/06/10 05:23:07;;;;;;;4.35;1.50;;;;;;;30.38;43.58;100511.97;2077536;28;20613;-72
2022/06/10 05:24:31;;;;;;;4.00;1.83;;;;;;;30.41;43.31;100508.13;2079893;28;20053;-73
2022/06/10 05:25:54;;;;;;;3.80;1.60;;;;;;;30.34;43.51;100517.72;2081889;28;20128;-73
2022/06/10 05:27:17;;;;;;;3.58;1.85;;;;;;;30.36;44.02;100513.03;2085415;28;20094;-72
2022/06/10 05:28:40;;;;;;;3.83;1.83;;;;;;;30.45;44.24;100524.19;2085671;28;20143;-72
2022/06/10 05:30:03;;;;;;;3.70;1.88;;;;;;;30.53;43.12;100518.19;2083326;28;20049;-72
2022/06/10 05:31:26;;;;;;;5.70;1.70;;;;;;;30.45;43.63;100520.56;2078673;28;20156;-72
2022/06/10 05:32:48;;;;;;;5.75;1.85;;;;;;;30.48;44.04;100523.06;2072001;28;20050;-72
2022/06/10 05:35:50;;;;;;;6.43;1.58;;;;;;;30.77;44.07;100532.81;2073585;28;20056;-72
2022/06/10 05:37:14;;;;;;;4.93;1.90;;;;;;;30.86;43.93;100525.78;2077054;28;20503;-72
2022/06/10 05:38:37;;;;;;;3.72;1.45;;;;;;;30.75;44.34;100532.03;2074050;28;20143;-72
2022/06/10 05:40:01;;;;;;;7.88;2.17;;;;;;;30.63;44.54;100526.59;2080376;28;20040;-72
2022/06/10 05:43:05;;;;;;;7.28;1.90;;;;;;;30.36;45.33;100532.13;2079685;28;20514;-72
2022/06/10 05:44:28;;;;;;;4.38;1.70;;;;;;;30.24;46.00;100532.97;2083130;28;20048;-72
2022/06/10 05:45:51;;;;;;;4.45;1.80;;;;;;;30.22;46.10;100524.03;2087987;28;20417;-72
2022/06/10 05:47:15;;;;;;;4.25;1.80;;;;;;;30.21;46.47;100544.06;2077167;28;20436;-72
2022/06/10 05:48:38;;;;;;;4.07;1.92;;;;;;;30.12;46.73;100531.13;2070812;28;20080;-73
2022/06/10 05:50:04;;;;;;;4.03;2.10;;;;;;;30.23;46.19;100539.41;2091266;28;20131;-72
2022/06/10 05:51:25;;;;;;;6.78;2.33;;;;;;;30.29;46.42;100528.06;2077946;28;20080;-72
2022/06/10 05:52:48;;;;;;;8.38;2.10;;;;;;;30.28;46.58;100539.94;2088221;28;20506;-72
2022/06/10 05:54:09;;;;;;;6.22;2.30;;;;;;;30.34;46.67;100543.13;2074462;28;20099;-72
2022/06/10 05:55:35;;;;;;;4.75;1.90;;;;;;;30.38;46.75;100539.22;2078560;28;20514;-71
2022/06/10 05:56:56;;;;;;;5.22;2.33;;;;;;;30.42;46.69;100534.41;2085561;28;20207;-72
2022/06/10 05:58:19;;;;;;;4.30;1.60;;;;;;;30.38;46.35;100541.94;2085427;28;20147;-72
2022/06/10 05:59:42;;;;;;;6.03;1.95;;;;;;;30.31;46.97;100545.19;2076383;28;20063;-72
2022/06/10 06:01:04;;;;;;;4.93;1.83;;;;;;;30.24;47.47;100528.41;2082835;28;20145;-72
2022/06/10 06:02:27;;;;;;;5.15;2.35;;;;;;;30.27;47.73;100554.53;2085303;28;20107;-74
2022/06/10 06:03:50;;;;;;;3.67;2.15;;;;;;;30.16;49.17;100549.84;2093841;28;20098;-74
2022/06/10 06:05:13;;;;;;;5.47;1.80;;;;;;;29.75;50.24;100549.91;2088050;28;20494;-74
2022/06/10 06:06:34;;;;;;;4.90;2.28;;;;;;;29.39;51.25;100547.81;2076184;28;20083;-74
2022/06/10 06:07:58;;;;;;;4.97;2.30;;;;;;;29.02;52.71;100546.56;2073529;28;20045;-74
2022/06/10 06:09:22;;;;;;;6.90;2.00;;;;;;;28.86;53.24;100548.53;2074924;28;20120;-74
2022/06/10 06:10:46;;;;;;;4.40;1.90;;;;;;;28.82;53.73;100557.81;2085655;28;20049;-75
2022/06/10 06:12:11;;;;;;;5.63;1.80;;;;;;;28.88;53.50;100554.75;2085557;28;20588;-74
2022/06/10 06:13:33;;;;;;;4.93;1.80;;;;;;;28.84;53.55;100556.78;2085428;28;20454;-73
2022/06/10 06:14:56;;;;;;;3.45;1.98;;;;;;;28.85;53.68;100563.09;2085599;28;20044;-73
2022/06/10 06:16:21;;;;;;;4.95;1.90;;;;;;;28.99;53.15;100562.22;2080396;28;20068;-74
2022/06/10 06:17:44;;;;;;;3.50;1.70;;;;;;;29.00;53.47;100569.41;2079765;28;20419;-73
2022/06/10 06:19:05;;;;;;;5.18;2.00;;;;;;;29.04;53.45;100582.69;2074653;28;20072;-73
2022/06/10 06:20:28;;;;;;;4.70;1.67;;;;;;;29.04;53.29;100565.50;2076996;28;20609;-74
2022/06/10 06:21:51;;;;;;;4.80;1.42;;;;;;;29.10;53.26;100554.22;2081600;28;20067;-74
2022/06/10 06:23:13;;;;;;;2.60;1.40;;;;;;;29.13;53.24;100563.06;2085520;28;20143;-74
2022/06/10 06:24:37;;;;;;;3.97;1.25;;;;;;;29.24;53.03;100576.84;2076943;28;20053;-74
2022/06/10 06:26:01;;;;;;;5.00;2.15;;;;;;;29.32;52.60;100565.47;2077575;28;20583;-73
2022/06/10 06:27:23;;;;;;;3.72;1.92;;;;;;;29.33;52.78;100564.50;2086764;28;20106;-73
2022/06/10 06:28:46;;;;;;;3.22;1.73;;;;;;;29.49;53.05;100561.66;2079186;28;20041;-73
2022/06/10 06:30:12;;;;;;;5.55;1.90;;;;;;;29.74;52.00;100545.44;2067931;28;20073;-73
2022/06/10 06:31:35;;;;;;;3.60;1.90;;;;;;;29.71;51.90;100567.44;2080001;28;20045;-73
2022/06/10 06:32:58;;;;;;;6.30;1.70;;;;;;;29.60;52.03;100554.53;2083675;28;20049;-73
2022/06/10 06:34:21;;;;;;;4.47;1.52;;;;;;;29.54;52.23;100543.19;2075626;28;20118;-73
2022/06/10 06:35:50;;;;;;;4.60;2.28;;;;;;;29.53;51.94;100555.06;2082448;28;20041;-73
2022/06/10 06:37:15;;;;;;;3.38;1.48;;;;;;;29.55;51.80;100561.25;2092384;28;20101;-73
2022/06/10 06:38:37;;;;;;;3.95;1.40;;;;;;;29.65;51.92;100546.06;2080884;28;20049;-73
2022/06/10 06:40:00;;;;;;;5.82;1.65;;;;;;;29.83;51.66;100550.28;2084440;28;20044;-72
2022/06/10 06:41:25;;;;;;;6.18;1.70;;;;;;;29.96;50.93;100555.78;2086357;28;20378;-73
2022/06/10 06:42:49;;;;;;;5.28;1.63;;;;;;;30.00;50.61;100546.41;2084834;28;20041;-73
2022/06/10 06:44:12;;;;;;;2.22;1.38;;;;;;;29.99;49.68;100556.47;2086935;28;20087;-72
2022/06/10 06:45:35;;;;;;;3.83;1.60;;;;;;;29.92;49.82;100544.25;2086735;28;20171;-73